createdAt,value
2018-02-20T00:00:50.416Z,-0.90
2018-02-20T00:03:18.809Z,-0.90
2018-02-20T00:05:47.218Z,-0.90
2018-02-20T00:08:14.855Z,-0.90
2018-02-20T00:10:42.458Z,-0.90
2018-02-20T00:13:10.820Z,-0.90
2018-02-20T00:15:38.455Z,-1.00
2018-02-20T00:18:06.045Z,-1.00
2018-02-20T00:20:33.679Z,-1.00
2018-02-20T00:23:04.238Z,-1.00
2018-02-20T00:25:31.835Z,-1.10
2018-02-20T00:28:00.237Z,-1.10
2018-02-20T00:30:27.831Z,-1.10
2018-02-20T00:32:55.489Z,-1.10
2018-02-20T00:35:23.091Z,-1.10
2018-02-20T00:37:50.693Z,-1.10
2018-02-20T00:40:18.324Z,-1.10
2018-02-20T00:42:46.691Z,-1.20
2018-02-20T00:45:14.324Z,-1.20
2018-02-20T00:47:41.936Z,-1.20
2018-02-20T00:50:09.528Z,-1.20
2018-02-20T00:52:37.154Z,-1.20
2018-02-20T00:55:05.508Z,-1.20
2018-02-20T00:57:33.122Z,-1.20
2018-02-20T01:00:00.715Z,-1.30
2018-02-20T01:02:28.366Z,-1.30
2018-02-20T01:04:55.960Z,-1.30
2018-02-20T01:07:24.326Z,-1.30
2018-02-20T01:09:52.719Z,-1.30
2018-02-20T01:12:21.083Z,-1.30
2018-02-20T01:14:49.520Z,-1.30
2018-02-20T01:17:17.115Z,-1.30
2018-02-20T01:19:44.727Z,-1.40
2018-02-20T01:22:12.425Z,-1.40
2018-02-20T01:24:40.036Z,-1.40
2018-02-20T01:27:07.662Z,-1.40
2018-02-20T01:29:35.267Z,-1.40
2018-02-20T01:32:02.856Z,-1.40
2018-02-20T01:34:30.489Z,-1.40
2018-02-20T01:36:58.099Z,-1.40
2018-02-20T01:39:25.747Z,-1.40
2018-02-20T01:41:53.357Z,-1.50
2018-02-20T01:44:20.958Z,-1.50
2018-02-20T01:46:48.579Z,-1.50
2018-02-20T01:49:16.176Z,-1.50
2018-02-20T01:51:43.836Z,-1.50
2018-02-20T01:54:11.446Z,-1.50
2018-02-20T01:56:39.050Z,-1.50
2018-02-20T01:59:06.677Z,-1.50
2018-02-20T02:01:34.266Z,-1.50
2018-02-20T02:04:01.896Z,-1.50
2018-02-20T02:06:29.496Z,-1.60
2018-02-20T02:08:57.105Z,-1.60
2018-02-20T02:11:25.498Z,-1.60
2018-02-20T02:13:53.095Z,-1.70
2018-02-20T02:16:21.495Z,-1.70
2018-02-20T02:18:49.091Z,-1.70
2018-02-20T02:21:16.690Z,-1.70
2018-02-20T02:23:44.306Z,-1.70
2018-02-20T02:26:12.669Z,-1.70
2018-02-20T02:28:41.067Z,-1.70
2018-02-20T02:31:08.673Z,-1.70
2018-02-20T02:33:36.295Z,-1.70
2018-02-20T02:36:04.113Z,-1.70
2018-02-20T02:38:31.724Z,-1.70
2018-02-20T02:40:59.382Z,-1.80
2018-02-20T02:43:26.988Z,-1.80
2018-02-20T02:45:54.623Z,-1.80
2018-02-20T02:48:22.278Z,-1.80
2018-02-20T02:50:49.891Z,-1.80
2018-02-20T02:53:18.297Z,-1.80
2018-02-20T02:55:45.902Z,-1.80
2018-02-20T02:58:13.526Z,-1.80
2018-02-20T03:00:41.126Z,-1.80
2018-02-20T03:03:08.769Z,-1.80
2018-02-20T03:05:36.367Z,-1.80
2018-02-20T03:08:04.741Z,-1.90
2018-02-20T03:10:32.387Z,-1.90
2018-02-20T03:12:59.993Z,-1.90
2018-02-20T03:15:27.613Z,-1.90
2018-02-20T03:17:55.223Z,-1.90
2018-02-20T03:20:22.872Z,-1.90
2018-02-20T03:22:50.472Z,-1.90
2018-02-20T03:25:18.072Z,-2.00
2018-02-20T03:27:46.457Z,-2.00
2018-02-20T03:30:14.820Z,-2.00
2018-02-20T03:32:43.213Z,-2.00
2018-02-20T03:35:11.575Z,-2.00
2018-02-20T03:37:39.199Z,-2.00
2018-02-20T03:40:06.804Z,-2.00
2018-02-20T03:42:35.208Z,-2.10
2018-02-20T03:45:02.798Z,-2.10
2018-02-20T03:47:31.154Z,-2.10
2018-02-20T03:49:58.778Z,-2.10
2018-02-20T03:52:27.149Z,-2.10
2018-02-20T03:54:54.772Z,-2.10
2018-02-20T03:57:22.367Z,-2.10
2018-02-20T03:59:49.999Z,-2.20
2018-02-20T04:02:17.599Z,-2.10
2018-02-20T04:04:45.998Z,-2.20
2018-02-20T04:07:13.605Z,-2.20
2018-02-20T04:09:41.203Z,-2.20
2018-02-20T04:12:09.601Z,-2.20
2018-02-20T04:14:37.185Z,-2.20
2018-02-20T04:17:04.818Z,-2.20
2018-02-20T04:19:32.430Z,-2.20
2018-02-20T04:22:00.066Z,-2.20
2018-02-20T04:24:27.661Z,-2.20
2018-02-20T04:26:55.258Z,-2.20
2018-02-20T04:29:22.890Z,-2.20
2018-02-20T04:31:51.240Z,-2.20
2018-02-20T04:34:18.869Z,-2.20
2018-02-20T04:36:46.448Z,-2.20
2018-02-20T04:39:14.077Z,-2.20
2018-02-20T04:41:41.676Z,-2.20
2018-02-20T04:44:09.264Z,-2.20
2018-02-20T04:46:36.888Z,-2.20
2018-02-20T04:49:04.472Z,-2.20
2018-02-20T04:51:32.097Z,-2.20
2018-02-20T04:53:59.674Z,-2.20
2018-02-20T04:56:28.027Z,-2.30
2018-02-20T04:58:56.489Z,-2.30
2018-02-20T05:01:24.081Z,-2.30
2018-02-20T05:03:51.693Z,-2.30
2018-02-20T05:06:20.052Z,-2.30
2018-02-20T05:08:47.684Z,-2.30
2018-02-20T05:11:15.269Z,-2.30
2018-02-20T05:13:42.853Z,-2.30
2018-02-20T05:16:11.248Z,-2.30
2018-02-20T05:18:38.832Z,-2.30
2018-02-20T05:21:06.453Z,-2.30
2018-02-20T05:23:34.053Z,-2.30
2018-02-20T05:26:01.851Z,-2.30
2018-02-20T05:28:29.452Z,-2.40
2018-02-20T05:30:57.063Z,-2.40
2018-02-20T05:33:24.713Z,-2.40
2018-02-20T05:35:52.292Z,-2.40
2018-02-20T05:38:19.906Z,-2.40
2018-02-20T05:40:47.510Z,-2.40
2018-02-20T05:43:15.104Z,-2.50
2018-02-20T05:45:43.490Z,-2.50
2018-02-20T05:48:11.077Z,-2.50
2018-02-20T05:50:38.696Z,-2.50
2018-02-20T05:53:07.089Z,-2.50
2018-02-20T05:55:34.700Z,-2.60
2018-02-20T05:58:02.334Z,-2.60
2018-02-20T06:00:29.919Z,-2.60
2018-02-20T06:02:57.513Z,-2.60
2018-02-20T06:05:25.907Z,-2.60
2018-02-20T06:07:53.481Z,-2.60
2018-02-20T06:10:21.132Z,-2.60
2018-02-20T06:12:48.838Z,-2.60
2018-02-20T06:15:16.528Z,-2.60
2018-02-20T06:17:45.187Z,-2.60
2018-02-20T06:20:12.775Z,-2.60
2018-02-20T06:22:41.182Z,-2.60
2018-02-20T06:25:08.936Z,-2.60
2018-02-20T06:27:36.518Z,-2.60
2018-02-20T06:30:04.133Z,-2.60
2018-02-20T06:32:32.481Z,-2.70
2018-02-20T06:35:00.380Z,-2.70
2018-02-20T06:37:28.736Z,-2.70
2018-02-20T06:39:56.334Z,-2.70
2018-02-20T06:42:23.947Z,-2.70
2018-02-20T06:44:51.537Z,-2.60
2018-02-20T06:47:19.933Z,-2.60
2018-02-20T06:49:47.521Z,-2.60
2018-02-20T06:52:15.106Z,-2.60
2018-02-20T06:54:42.722Z,-2.50
2018-02-20T06:57:10.302Z,-2.50
2018-02-20T06:59:37.943Z,-2.50
2018-02-20T07:02:05.522Z,-2.50
2018-02-20T07:04:33.090Z,-2.40
2018-02-20T07:07:00.690Z,-2.40
2018-02-20T07:09:29.041Z,-2.30
2018-02-20T07:11:56.644Z,-2.30
2018-02-20T07:14:24.274Z,-2.20
2018-02-20T07:16:51.884Z,-2.20
2018-02-20T07:19:19.464Z,-2.20
2018-02-20T07:21:47.086Z,-2.10
2018-02-20T07:24:14.739Z,-2.10
2018-02-20T07:26:42.339Z,-2.00
2018-02-20T07:29:09.975Z,-2.00
2018-02-20T07:31:37.605Z,-2.00
2018-02-20T07:34:05.380Z,-1.90
2018-02-20T07:36:33.805Z,-1.80
2018-02-20T07:39:02.206Z,-1.70
2018-02-20T07:41:29.789Z,-1.70
2018-02-20T07:43:58.191Z,-1.70
2018-02-20T07:46:25.832Z,-1.70
2018-02-20T07:48:54.241Z,-1.60
2018-02-20T07:51:21.837Z,-1.70
2018-02-20T07:53:49.430Z,-1.60
2018-02-20T07:56:17.813Z,-1.60
2018-02-20T07:58:46.214Z,-1.50
2018-02-20T08:01:13.852Z,-1.50
2018-02-20T08:03:42.226Z,-1.50
2018-02-20T08:06:10.578Z,-1.50
2018-02-20T08:08:38.189Z,-1.50
2018-02-20T08:11:05.779Z,-1.40
2018-02-20T08:13:34.188Z,-1.40
2018-02-20T08:16:01.789Z,-1.40
2018-02-20T08:18:29.463Z,-1.40
2018-02-20T08:20:57.159Z,-1.30
2018-02-20T08:23:24.773Z,-1.30
2018-02-20T08:25:52.384Z,-1.30
2018-02-20T08:28:19.957Z,-1.30
2018-02-20T08:30:48.308Z,-1.30
2018-02-20T08:33:15.997Z,-1.30
2018-02-20T08:35:43.663Z,-1.20
2018-02-20T08:38:12.034Z,-1.10
2018-02-20T08:40:40.416Z,-1.10
2018-02-20T08:43:08.772Z,-1.00
2018-02-20T08:45:36.378Z,-1.00
2018-02-20T08:48:04.013Z,-1.00
2018-02-20T08:50:32.435Z,-0.90
2018-02-20T08:53:00.009Z,-0.90
2018-02-20T08:55:27.599Z,-0.80
2018-02-20T08:57:55.206Z,-0.80
2018-02-20T09:00:22.787Z,-0.70
2018-02-20T09:02:50.420Z,-0.60
2018-02-20T09:05:18.016Z,-0.50
2018-02-20T09:07:45.608Z,-0.40
2018-02-20T09:10:13.996Z,-0.20
2018-02-20T09:12:42.352Z,-0.20
2018-02-20T09:15:09.974Z,-0.20
2018-02-20T09:17:37.555Z,0.00
2018-02-20T09:20:05.164Z,0.00
2018-02-20T09:22:32.735Z,0.10
2018-02-20T09:25:00.314Z,0.20
2018-02-20T09:27:27.957Z,0.30
2018-02-20T09:29:55.553Z,0.30
2018-02-20T09:32:23.181Z,0.50
2018-02-20T09:34:50.764Z,0.50
2018-02-20T09:37:18.339Z,0.70
2018-02-20T09:39:45.949Z,0.60
2018-02-20T09:42:13.526Z,0.70
2018-02-20T09:44:41.126Z,0.90
2018-02-20T09:47:08.811Z,1.00
2018-02-20T09:49:37.179Z,1.20
2018-02-20T09:52:05.520Z,1.20
2018-02-20T09:54:33.116Z,1.20
2018-02-20T09:57:01.699Z,1.50
2018-02-20T09:59:30.053Z,1.60
2018-02-20T10:01:57.673Z,1.60
2018-02-20T10:04:25.251Z,1.70
2018-02-20T10:06:53.815Z,1.80
2018-02-20T10:09:21.441Z,1.90
2018-02-20T10:11:49.775Z,2.00
2018-02-20T10:14:17.399Z,2.00
2018-02-20T10:16:44.967Z,2.10
2018-02-20T10:19:12.544Z,2.20
2018-02-20T10:21:40.155Z,2.40
2018-02-20T10:24:08.499Z,2.70
2018-02-20T10:26:36.120Z,2.70
2018-02-20T10:29:03.939Z,2.70
2018-02-20T10:31:31.524Z,2.80
2018-02-20T10:33:59.940Z,3.20
2018-02-20T10:36:27.525Z,3.20
2018-02-20T10:41:28.598Z,3.50
2018-02-20T10:43:56.291Z,3.60
2018-02-20T10:46:24.672Z,3.80
2018-02-20T10:48:52.267Z,3.80
2018-02-20T10:51:19.900Z,4.00
2018-02-20T10:53:47.500Z,4.10
2018-02-20T10:56:15.918Z,4.40
2018-02-20T10:58:44.324Z,4.50
2018-02-20T11:01:12.013Z,4.50
2018-02-20T11:03:39.661Z,4.40
2018-02-20T11:06:07.255Z,4.30
2018-02-20T11:08:34.891Z,4.50
2018-02-20T11:11:02.736Z,4.80
2018-02-20T11:13:30.339Z,4.60
2018-02-20T11:15:57.973Z,4.60
2018-02-20T11:18:25.563Z,4.80
2018-02-20T11:20:53.216Z,4.80
2018-02-20T11:23:20.815Z,4.80
2018-02-20T11:25:49.197Z,4.80
2018-02-20T11:28:16.829Z,4.80
2018-02-20T11:30:44.628Z,4.90
2018-02-20T11:33:12.277Z,5.10
2018-02-20T11:35:40.654Z,5.70
2018-02-20T11:38:08.299Z,5.70
2018-02-20T11:40:35.913Z,5.70
2018-02-20T11:43:03.599Z,5.70
2018-02-20T11:45:32.203Z,5.60
2018-02-20T11:48:00.579Z,5.90
2018-02-20T11:50:28.227Z,5.90
2018-02-20T11:52:55.845Z,6.00
2018-02-20T11:55:23.450Z,6.10
2018-02-20T11:57:51.083Z,6.10
2018-02-20T12:00:18.704Z,6.00
2018-02-20T12:02:47.121Z,6.20
2018-02-20T12:05:14.742Z,6.20
2018-02-20T12:07:43.100Z,6.40
2018-02-20T12:10:10.735Z,6.40
2018-02-20T12:12:38.345Z,6.50
2018-02-20T12:15:06.907Z,6.60
2018-02-20T12:17:35.302Z,6.30
2018-02-20T12:20:03.728Z,5.80
2018-02-20T12:22:31.354Z,5.80
2018-02-20T12:24:58.968Z,6.20
2018-02-20T12:27:26.598Z,6.30
2018-02-20T12:29:54.202Z,6.60
2018-02-20T12:32:21.860Z,6.80
2018-02-20T12:34:49.488Z,6.60
2018-02-20T12:37:17.093Z,5.80
2018-02-20T12:39:45.488Z,6.60
2018-02-20T12:42:13.080Z,6.60
2018-02-20T12:44:40.734Z,6.50
2018-02-20T12:47:08.468Z,6.60
2018-02-20T12:49:36.068Z,6.90
2018-02-20T12:52:03.695Z,6.60
2018-02-20T12:54:31.309Z,6.60
2018-02-20T12:56:58.956Z,6.50
2018-02-20T12:59:26.556Z,6.50
2018-02-20T13:01:54.919Z,6.70
2018-02-20T13:04:22.545Z,6.60
2018-02-20T13:06:50.143Z,6.80
2018-02-20T13:09:17.780Z,6.90
2018-02-20T13:11:45.386Z,6.90
2018-02-20T13:14:13.024Z,7.00
2018-02-20T13:16:40.683Z,6.60
2018-02-20T13:19:08.300Z,6.20
2018-02-20T13:21:35.946Z,6.50
2018-02-20T13:24:03.859Z,6.20
2018-02-20T13:26:31.468Z,6.30
2018-02-20T13:28:59.131Z,6.60
2018-02-20T13:31:26.737Z,6.20
2018-02-20T13:33:55.347Z,6.50
2018-02-20T13:36:23.723Z,6.90
2018-02-20T13:38:52.146Z,7.00
2018-02-20T13:41:19.814Z,7.00
2018-02-20T13:43:47.429Z,7.20
2018-02-20T13:46:15.845Z,6.80
2018-02-20T13:48:43.837Z,6.80
2018-02-20T13:51:11.485Z,6.60
2018-02-20T13:53:39.087Z,6.50
2018-02-20T13:56:06.707Z,6.20
2018-02-20T13:58:34.333Z,6.70
2018-02-20T14:01:01.959Z,6.70
2018-02-20T14:03:29.592Z,6.90
2018-02-20T14:05:57.196Z,6.70
2018-02-20T14:08:25.579Z,6.50
2018-02-20T14:10:53.976Z,6.70
2018-02-20T14:13:21.575Z,6.70
2018-02-20T14:15:49.223Z,6.50
2018-02-20T14:18:16.820Z,6.60
2018-02-20T14:20:44.421Z,6.60
2018-02-20T14:23:12.047Z,6.50
2018-02-20T14:25:40.415Z,6.60
2018-02-20T14:28:08.080Z,6.60
2018-02-20T14:30:35.675Z,6.60
2018-02-20T14:33:03.336Z,6.70
2018-02-20T14:35:31.007Z,6.50
2018-02-20T14:37:58.642Z,6.40
2018-02-20T14:40:27.061Z,6.40
2018-02-20T14:42:54.664Z,6.40
2018-02-20T14:45:22.280Z,6.50
2018-02-20T14:47:49.915Z,6.40
2018-02-20T14:50:17.516Z,6.40
2018-02-20T14:52:45.162Z,6.40
2018-02-20T14:55:12.768Z,6.10
2018-02-20T14:57:41.167Z,6.00
2018-02-20T15:00:08.816Z,6.10
2018-02-20T15:02:37.274Z,6.10
2018-02-20T15:05:04.934Z,5.70
2018-02-20T15:07:32.539Z,5.90
2018-02-20T15:10:00.148Z,5.80
2018-02-20T15:12:27.787Z,5.90
2018-02-20T15:14:55.401Z,6.00
2018-02-20T15:17:23.821Z,6.00
2018-02-20T15:19:51.626Z,6.00
2018-02-20T15:22:19.257Z,6.00
2018-02-20T15:24:46.875Z,5.90
2018-02-20T15:27:14.504Z,5.90
2018-02-20T15:29:42.180Z,5.80
2018-02-20T15:32:10.586Z,5.50
2018-02-20T15:34:38.174Z,5.50
2018-02-20T15:37:05.807Z,5.50
2018-02-20T15:39:33.508Z,5.30
2018-02-20T15:42:01.139Z,5.20
2018-02-20T15:44:28.753Z,5.40
2018-02-20T15:46:57.139Z,6.00
2018-02-20T15:49:24.782Z,6.00
2018-02-20T15:51:52.376Z,5.90
2018-02-20T15:54:20.794Z,5.50
2018-02-20T15:56:48.549Z,5.40
2018-02-20T15:59:16.177Z,5.10
2018-02-20T16:01:44.620Z,4.50
2018-02-20T16:04:12.228Z,4.50
2018-02-20T16:06:39.848Z,4.30
2018-02-20T16:09:07.472Z,4.10
2018-02-20T16:11:35.071Z,4.00
2018-02-20T16:14:08.470Z,3.80
2018-02-20T16:16:36.129Z,3.60
2018-02-20T16:19:03.747Z,3.60
2018-02-20T16:21:31.386Z,3.50
2018-02-20T16:23:59.047Z,3.20
2018-02-20T16:26:26.662Z,3.20
2018-02-20T16:28:54.282Z,3.00
2018-02-20T16:31:21.943Z,3.00
2018-02-20T16:33:49.561Z,2.90
2018-02-20T16:36:17.206Z,2.80
2018-02-20T16:38:44.875Z,2.60
2018-02-20T16:41:12.513Z,2.40
2018-02-20T16:43:40.135Z,2.20
2018-02-20T16:46:07.732Z,2.10
2018-02-20T16:48:35.378Z,2.10
2018-02-20T16:51:02.996Z,2.00
2018-02-20T16:53:31.423Z,1.90
2018-02-20T16:55:59.039Z,1.90
2018-02-20T16:58:27.431Z,1.80
2018-02-20T17:00:55.035Z,1.80
2018-02-20T17:03:22.815Z,1.70
2018-02-20T17:05:50.439Z,1.70
2018-02-20T17:08:18.031Z,1.60
2018-02-20T17:10:45.652Z,1.50
2018-02-20T17:13:13.259Z,1.50
2018-02-20T17:15:40.899Z,1.40
2018-02-20T17:18:08.533Z,1.40
2018-02-20T17:20:36.168Z,1.30
2018-02-20T17:23:04.552Z,1.10
2018-02-20T17:25:32.174Z,1.10
2018-02-20T17:27:59.800Z,1.10
2018-02-20T17:30:27.399Z,1.10
2018-02-20T17:32:55.058Z,1.10
2018-02-20T17:35:22.656Z,1.00
2018-02-20T17:37:52.601Z,0.90
2018-02-20T17:40:20.260Z,0.90
2018-02-20T17:42:47.904Z,0.90
2018-02-20T17:45:15.541Z,0.90
2018-02-20T17:47:43.907Z,0.70
2018-02-20T17:50:12.621Z,0.70
2018-02-20T17:52:40.323Z,0.70
2018-02-20T17:55:08.158Z,0.60
2018-02-20T17:57:36.213Z,0.60
2018-02-20T18:00:03.901Z,0.50
2018-02-20T18:02:32.351Z,0.40
2018-02-20T18:05:00.944Z,0.40
2018-02-20T18:07:31.583Z,0.40
2018-02-20T18:09:59.208Z,0.30
2018-02-20T18:12:27.625Z,0.20
2018-02-20T18:14:55.222Z,0.20
2018-02-20T18:17:22.821Z,0.10
2018-02-20T18:19:51.209Z,0.00
2018-02-20T18:22:18.966Z,-0.10
2018-02-20T18:24:46.616Z,0.00
2018-02-20T18:27:15.050Z,0.00
2018-02-20T18:29:42.683Z,0.00
2018-02-20T18:32:10.516Z,-0.10
2018-02-20T18:34:38.891Z,-0.10
2018-02-20T18:37:07.288Z,-0.10
2018-02-20T18:39:34.893Z,-0.10
2018-02-20T18:42:02.515Z,-0.10
2018-02-20T18:44:30.134Z,-0.10
2018-02-20T18:46:57.779Z,-0.20
2018-02-20T18:49:25.370Z,-0.30
2018-02-20T18:51:53.831Z,-0.40
2018-02-20T18:54:21.431Z,-0.40
2018-02-20T18:56:49.058Z,-0.50
2018-02-20T18:59:16.656Z,-0.50
2018-02-20T19:01:44.341Z,-0.50
2018-02-20T19:04:11.934Z,-0.60
2018-02-20T19:06:39.555Z,-0.60
2018-02-20T19:09:07.148Z,-0.60
2018-02-20T19:11:34.778Z,-0.70
2018-02-20T19:14:02.549Z,-0.70
2018-02-20T19:16:30.222Z,-0.70
2018-02-20T19:18:57.859Z,-0.80
2018-02-20T19:21:25.454Z,-0.70
2018-02-20T19:23:53.082Z,-0.80
2018-02-20T19:26:20.675Z,-0.80
2018-02-20T19:28:48.271Z,-0.80
2018-02-20T19:31:15.931Z,-0.90
2018-02-20T19:33:44.294Z,-0.90
2018-02-20T19:36:12.078Z,-0.90
2018-02-20T19:38:40.449Z,-0.90
2018-02-20T19:41:08.802Z,-0.90
2018-02-20T19:43:36.435Z,-1.00
2018-02-20T19:46:04.035Z,-0.90
2018-02-20T19:48:32.439Z,-1.00
2018-02-20T19:51:00.151Z,-1.00
2018-02-20T19:53:27.740Z,-1.00
2018-02-20T19:55:56.320Z,-1.10
2018-02-20T19:58:24.911Z,-1.10
2018-02-20T20:00:53.369Z,-1.20
2018-02-20T20:03:20.974Z,-1.10
2018-02-20T20:05:48.588Z,-1.20
2018-02-20T20:08:20.215Z,-1.20
2018-02-20T20:10:47.830Z,-1.20
2018-02-20T20:13:16.222Z,-1.30
2018-02-20T20:15:44.019Z,-1.30
2018-02-20T20:18:11.626Z,-1.40
2018-02-20T20:20:40.080Z,-1.50
2018-02-20T20:23:07.708Z,-1.50
2018-02-20T20:25:35.357Z,-1.50
2018-02-20T20:28:02.980Z,-1.40
2018-02-20T20:30:31.415Z,-1.40
2018-02-20T20:32:59.034Z,-1.50
2018-02-20T20:35:26.624Z,-1.40
2018-02-20T20:37:54.260Z,-1.40
2018-02-20T20:40:21.864Z,-1.40
2018-02-20T20:42:49.476Z,-1.50
2018-02-20T20:45:18.041Z,-1.50
2018-02-20T20:47:46.404Z,-1.50
2018-02-20T20:50:14.208Z,-1.50
2018-02-20T20:52:41.812Z,-1.50
2018-02-20T20:55:09.421Z,-1.60
2018-02-20T20:57:37.076Z,-1.60
2018-02-20T21:00:05.557Z,-1.60
2018-02-20T21:02:33.966Z,-1.70
2018-02-20T21:05:01.650Z,-1.70
2018-02-20T21:07:29.258Z,-1.60
2018-02-20T21:09:57.816Z,-1.70
2018-02-20T21:12:25.438Z,-1.80
2018-02-20T21:14:53.077Z,-1.80
2018-02-20T21:17:20.685Z,-1.90
2018-02-20T21:19:48.284Z,-1.90
2018-02-20T21:22:16.686Z,-1.90
2018-02-20T21:24:44.378Z,-1.90
2018-02-20T21:27:12.052Z,-1.80
2018-02-20T21:29:39.653Z,-1.80
2018-02-20T21:32:07.246Z,-1.80
2018-02-20T21:34:34.862Z,-1.90
2018-02-20T21:37:03.233Z,-1.90
2018-02-20T21:39:31.628Z,-1.90
2018-02-20T21:41:59.220Z,-1.90
2018-02-20T21:44:26.814Z,-1.90
2018-02-20T21:46:55.249Z,-2.00
2018-02-20T21:49:22.936Z,-2.00
2018-02-20T21:51:50.561Z,-2.10
2018-02-20T21:54:18.151Z,-2.10
2018-02-20T21:56:45.750Z,-2.10
2018-02-20T21:59:14.345Z,-2.00
2018-02-20T22:01:41.944Z,-2.00
2018-02-20T22:04:09.577Z,-2.00
2018-02-20T22:06:37.207Z,-2.00
2018-02-20T22:09:05.693Z,-2.00
2018-02-20T22:11:34.052Z,-2.00
2018-02-20T22:14:01.799Z,-2.00
2018-02-20T22:16:29.420Z,-2.00
2018-02-20T22:18:57.016Z,-2.00
2018-02-20T22:21:24.648Z,-1.90
2018-02-20T22:23:52.251Z,-1.90
2018-02-20T22:26:19.851Z,-2.00
2018-02-20T22:28:48.415Z,-2.00
2018-02-20T22:31:16.785Z,-2.10
2018-02-20T22:33:44.535Z,-2.10
2018-02-20T22:36:12.130Z,-2.10
2018-02-20T22:38:40.702Z,-2.10
2018-02-20T22:41:09.081Z,-2.10
2018-02-20T22:43:37.455Z,-2.20
2018-02-20T22:46:05.846Z,-2.10
2018-02-20T22:48:34.211Z,-2.10
2018-02-20T22:51:02.607Z,-2.10
2018-02-20T22:53:30.315Z,-2.10
2018-02-20T22:55:57.943Z,-2.10
2018-02-20T22:58:25.578Z,-2.10
2018-02-20T23:00:53.170Z,-2.10
2018-02-20T23:03:20.797Z,-2.10
2018-02-20T23:05:49.158Z,-2.20
2018-02-20T23:08:16.952Z,-2.20
2018-02-20T23:10:44.570Z,-2.20
2018-02-20T23:13:12.180Z,-2.20
2018-02-20T23:15:39.803Z,-2.20
2018-02-20T23:18:07.473Z,-2.30
2018-02-20T23:20:35.104Z,-2.30
2018-02-20T23:23:03.058Z,-2.30
2018-02-20T23:25:30.663Z,-2.30
2018-02-20T23:27:59.063Z,-2.30
2018-02-20T23:30:26.659Z,-2.30
2018-02-20T23:32:54.302Z,-2.30
2018-02-20T23:35:21.894Z,-2.30
2018-02-20T23:37:50.379Z,-2.30
2018-02-20T23:40:18.022Z,-2.30
2018-02-20T23:42:46.511Z,-2.30
2018-02-20T23:45:14.154Z,-2.40
2018-02-20T23:47:41.751Z,-2.30
2018-02-20T23:50:09.359Z,-2.30
2018-02-20T23:52:37.003Z,-2.30
2018-02-20T23:55:05.395Z,-2.40
2018-02-20T23:57:33.116Z,-2.50
